createdAt,value
2017-12-01T00:00:39.743Z,23.57
2017-12-01T00:03:08.579Z,22.30
2017-12-01T00:05:37.425Z,23.37
2017-12-01T00:08:06.946Z,25.07
2017-12-01T00:10:35.782Z,24.40
2017-12-01T00:13:04.622Z,23.07
2017-12-01T00:15:33.735Z,23.23
2017-12-01T00:18:03.304Z,22.73
2017-12-01T00:20:32.890Z,24.00
2017-12-01T00:23:02.467Z,22.70
2017-12-01T00:25:31.412Z,22.13
2017-12-01T00:28:00.262Z,24.23
2017-12-01T00:30:29.091Z,21.63
2017-12-01T00:32:57.922Z,22.37
2017-12-01T00:35:26.761Z,21.87
2017-12-01T00:37:55.589Z,23.03
2017-12-01T00:40:24.421Z,24.07
2017-12-01T00:42:53.285Z,22.20
2017-12-01T00:45:22.110Z,22.27
2017-12-01T00:47:50.945Z,23.80
2017-12-01T00:50:19.787Z,22.73
2017-12-01T00:52:48.625Z,21.93
2017-12-01T00:55:17.451Z,22.90
2017-12-01T00:57:46.302Z,24.60
2017-12-01T01:00:15.125Z,23.10
2017-12-01T01:02:43.969Z,24.40
2017-12-01T01:05:12.823Z,21.73
2017-12-01T01:07:41.758Z,22.67
2017-12-01T01:10:10.591Z,22.40
2017-12-01T01:12:39.428Z,21.70
2017-12-01T01:15:08.262Z,22.07
2017-12-01T01:17:37.096Z,21.23
2017-12-01T01:20:05.934Z,22.70
2017-12-01T01:22:35.614Z,21.43
2017-12-01T01:25:05.318Z,21.47
2017-12-01T01:27:35.120Z,22.50
2017-12-01T01:30:04.694Z,21.70
2017-12-01T01:32:34.269Z,22.63
2017-12-01T01:35:03.219Z,22.37
2017-12-01T01:37:32.054Z,22.10
2017-12-01T01:40:00.884Z,20.50
2017-12-01T01:42:29.729Z,20.87
2017-12-01T01:44:58.561Z,20.60
2017-12-01T01:47:27.462Z,20.40
2017-12-01T01:49:56.309Z,22.77
2017-12-01T01:52:25.247Z,21.60
2017-12-01T01:54:54.081Z,20.20
2017-12-01T01:57:22.920Z,20.43
2017-12-01T01:59:51.747Z,20.30
2017-12-01T02:02:20.578Z,21.13
2017-12-01T02:04:49.424Z,20.00
2017-12-01T02:07:18.317Z,19.87
2017-12-01T02:09:47.147Z,20.37
2017-12-01T02:12:15.989Z,21.57
2017-12-01T02:14:44.816Z,20.73
2017-12-01T02:17:13.668Z,21.20
2017-12-01T02:19:42.510Z,20.33
2017-12-01T02:22:11.348Z,19.67
2017-12-01T02:24:40.186Z,19.97
2017-12-01T02:27:09.020Z,17.93
2017-12-01T02:29:37.846Z,17.63
2017-12-01T02:32:07.425Z,18.87
2017-12-01T02:34:37.057Z,17.90
2017-12-01T02:37:06.633Z,17.83
2017-12-01T02:39:36.213Z,17.77
2017-12-01T02:42:05.053Z,17.43
2017-12-01T02:44:33.901Z,17.90
2017-12-01T02:47:02.790Z,17.53
2017-12-01T02:49:31.650Z,17.83
2017-12-01T02:52:00.487Z,17.50
2017-12-01T02:54:29.371Z,17.03
2017-12-01T02:56:58.217Z,17.43
2017-12-01T02:59:27.064Z,16.43
2017-12-01T03:01:55.955Z,15.23
2017-12-01T03:04:25.239Z,16.50
2017-12-01T03:06:54.146Z,17.20
2017-12-01T03:09:23.035Z,15.80
2017-12-01T03:11:51.947Z,16.77
2017-12-01T03:14:20.771Z,16.17
2017-12-01T03:16:49.602Z,15.80
2017-12-01T03:19:18.478Z,16.93
2017-12-01T03:21:47.382Z,16.20
2017-12-01T03:24:16.280Z,17.17
2017-12-01T03:26:45.134Z,16.20
2017-12-01T03:29:13.962Z,17.37
2017-12-01T03:31:42.796Z,17.30
2017-12-01T03:34:11.635Z,16.60
2017-12-01T03:36:40.517Z,18.30
2017-12-01T03:39:10.150Z,17.23
2017-12-01T03:41:39.838Z,17.23
2017-12-01T03:44:09.409Z,15.97
2017-12-01T03:46:38.989Z,15.83
2017-12-01T03:49:08.585Z,15.73
2017-12-01T03:51:37.443Z,15.23
2017-12-01T03:54:06.347Z,15.40
2017-12-01T03:56:35.203Z,16.40
2017-12-01T03:59:04.035Z,15.33
2017-12-01T04:01:32.865Z,16.40
2017-12-01T04:04:01.749Z,16.70
2017-12-01T04:06:30.595Z,15.33
2017-12-01T04:08:59.451Z,16.60
2017-12-01T04:11:28.296Z,17.63
2017-12-01T04:13:57.150Z,15.77
2017-12-01T04:16:26.044Z,16.17
2017-12-01T04:18:54.898Z,18.00
2017-12-01T04:21:23.734Z,17.27
2017-12-01T04:23:52.568Z,17.40
2017-12-01T04:26:21.406Z,17.63
2017-12-01T04:28:50.237Z,19.20
2017-12-01T04:31:19.086Z,18.30
2017-12-01T04:33:47.928Z,19.90
2017-12-01T04:36:16.761Z,21.67
2017-12-01T04:38:45.594Z,22.90
2017-12-01T04:41:14.437Z,21.37
2017-12-01T04:43:43.352Z,20.27
2017-12-01T04:46:12.185Z,23.40
2017-12-01T04:48:41.774Z,23.63
2017-12-01T04:51:11.443Z,23.57
2017-12-01T04:53:41.025Z,22.50
2017-12-01T04:56:10.617Z,20.60
2017-12-01T04:58:40.203Z,20.67
2017-12-01T05:01:09.041Z,20.73
2017-12-01T05:03:37.880Z,20.13
2017-12-01T05:06:06.703Z,20.40
2017-12-01T05:08:35.628Z,22.90
2017-12-01T05:11:04.457Z,21.90
2017-12-01T05:13:33.295Z,22.93
2017-12-01T05:16:02.240Z,23.17
2017-12-01T05:18:31.272Z,24.97
2017-12-01T05:21:00.109Z,23.77
2017-12-01T05:23:28.974Z,25.53
2017-12-01T05:25:57.818Z,24.63
2017-12-01T05:28:26.649Z,25.67
2017-12-01T05:30:55.570Z,23.60
2017-12-01T05:33:24.421Z,22.83
2017-12-01T05:35:53.262Z,24.30
2017-12-01T05:38:22.097Z,22.70
2017-12-01T05:40:51.006Z,23.00
2017-12-01T05:43:19.837Z,22.17
2017-12-01T05:45:48.724Z,22.10
2017-12-01T05:48:17.573Z,23.80
2017-12-01T05:50:46.413Z,23.27
2017-12-01T05:53:15.383Z,22.80
2017-12-01T05:55:44.218Z,22.70
2017-12-01T05:58:13.260Z,23.87
2017-12-01T06:00:42.889Z,25.77
2017-12-01T06:03:12.569Z,25.27
2017-12-01T06:05:42.138Z,24.47
2017-12-01T06:08:11.725Z,25.83
2017-12-01T06:10:40.550Z,24.20
2017-12-01T06:13:09.386Z,22.80
2017-12-01T06:15:38.232Z,23.30
2017-12-01T06:18:07.055Z,24.20
2017-12-01T06:20:35.895Z,24.13
2017-12-01T06:23:04.735Z,25.67
2017-12-01T06:25:33.579Z,23.03
2017-12-01T06:28:02.414Z,22.60
2017-12-01T06:30:31.254Z,22.10
2017-12-01T06:33:00.097Z,24.70
2017-12-01T06:35:28.924Z,25.73
2017-12-01T06:37:57.770Z,25.27
2017-12-01T06:40:26.611Z,25.87
2017-12-01T06:42:55.436Z,26.17
2017-12-01T06:45:24.279Z,26.40
2017-12-01T06:47:53.150Z,25.23
2017-12-01T06:50:21.989Z,24.87
2017-12-01T06:52:50.833Z,99.27
2017-12-01T06:55:19.670Z,58.40
2017-12-01T06:57:48.504Z,26.67
2017-12-01T07:00:17.373Z,23.63
2017-12-01T07:02:46.201Z,24.23
2017-12-01T07:05:15.059Z,24.93
2017-12-01T07:07:44.511Z,26.05
2017-12-01T07:10:14.079Z,26.70
2017-12-01T07:12:43.663Z,25.93
2017-12-01T07:15:13.256Z,26.10
2017-12-01T07:17:42.875Z,25.57
2017-12-01T07:20:11.702Z,28.53
2017-12-01T07:22:40.559Z,26.07
2017-12-01T07:25:09.390Z,28.90
2017-12-01T07:27:38.290Z,29.00
2017-12-01T07:30:07.134Z,29.57
2017-12-01T07:32:35.962Z,31.30
2017-12-01T07:35:04.792Z,31.03
2017-12-01T07:37:33.726Z,29.13
2017-12-01T07:40:02.650Z,29.90
2017-12-01T07:42:31.485Z,30.23
2017-12-01T07:45:01.616Z,30.20
2017-12-01T07:47:30.446Z,29.83
2017-12-01T07:49:59.269Z,27.57
2017-12-01T07:52:28.227Z,32.17
2017-12-01T07:54:57.061Z,35.80
2017-12-01T07:57:25.957Z,36.40
2017-12-01T07:59:54.873Z,29.67
2017-12-01T08:02:23.797Z,33.43
2017-12-01T08:04:52.629Z,26.87
2017-12-01T08:07:21.468Z,22.80
2017-12-01T08:09:51.143Z,20.40
2017-12-01T08:12:20.158Z,20.67
2017-12-01T08:14:49.079Z,22.30
2017-12-01T08:17:23.760Z,22.63
2017-12-01T08:19:52.606Z,26.77
2017-12-01T08:22:27.346Z,24.40
2017-12-01T08:25:02.150Z,19.43
2017-12-01T08:27:31.014Z,17.57
2017-12-01T08:29:59.852Z,17.80
2017-12-01T08:32:28.704Z,18.23
2017-12-01T08:34:57.542Z,18.50
2017-12-01T08:37:26.369Z,17.17
2017-12-01T08:39:55.212Z,17.47
2017-12-01T08:42:24.053Z,18.37
2017-12-01T08:44:52.882Z,18.57
2017-12-01T08:47:21.730Z,17.13
2017-12-01T08:49:50.561Z,16.90
2017-12-01T08:52:19.495Z,16.80
2017-12-01T08:54:48.365Z,17.30
2017-12-01T08:57:17.207Z,17.30
2017-12-01T08:59:46.521Z,15.18
2017-12-01T09:02:16.105Z,14.80
2017-12-01T09:04:45.683Z,16.17
2017-12-01T09:07:15.285Z,17.80
2017-12-01T09:09:44.873Z,17.50
2017-12-01T09:12:13.781Z,17.30
2017-12-01T09:14:42.611Z,15.20
2017-12-01T09:17:11.457Z,15.40
2017-12-01T09:19:40.294Z,15.63
2017-12-01T09:22:09.130Z,15.70
2017-12-01T09:24:37.981Z,16.10
2017-12-01T09:27:06.851Z,15.70
2017-12-01T09:29:35.678Z,15.30
2017-12-01T09:32:04.525Z,15.87
2017-12-01T09:34:33.394Z,16.63
2017-12-01T09:37:02.232Z,15.00
2017-12-01T09:39:31.080Z,16.30
2017-12-01T09:41:59.914Z,15.80
2017-12-01T09:44:28.745Z,16.40
2017-12-01T09:46:57.590Z,16.70
2017-12-01T09:49:26.426Z,15.07
2017-12-01T09:51:55.272Z,15.23
2017-12-01T09:54:24.113Z,14.70
2017-12-01T09:56:52.942Z,15.10
2017-12-01T09:59:21.889Z,15.30
2017-12-01T10:01:50.741Z,16.23
2017-12-01T10:04:19.587Z,16.23
2017-12-01T10:06:48.417Z,16.17
2017-12-01T10:09:17.863Z,17.30
2017-12-01T10:11:47.475Z,19.73
2017-12-01T10:14:17.061Z,18.33
2017-12-01T10:16:46.709Z,18.17
2017-12-01T10:19:16.282Z,17.20
2017-12-01T10:21:45.119Z,17.20
2017-12-01T10:24:13.964Z,18.43
2017-12-01T10:26:42.803Z,17.60
2017-12-01T10:29:11.634Z,18.10
2017-12-01T10:31:40.486Z,15.77
2017-12-01T10:34:09.317Z,16.30
2017-12-01T10:36:38.151Z,17.20
2017-12-01T10:39:07.046Z,16.13
2017-12-01T10:41:35.873Z,16.97
2017-12-01T10:44:04.712Z,15.50
2017-12-01T10:46:33.546Z,15.73
2017-12-01T10:49:02.410Z,16.13
2017-12-01T10:51:31.238Z,14.50
2017-12-01T10:54:00.166Z,15.47
2017-12-01T10:56:29.004Z,15.93
2017-12-01T10:58:57.846Z,15.23
2017-12-01T11:01:26.758Z,15.50
2017-12-01T11:03:55.587Z,15.17
2017-12-01T11:06:24.413Z,15.60
2017-12-01T11:08:53.263Z,15.27
2017-12-01T11:11:22.088Z,14.27
2017-12-01T11:13:51.001Z,15.57
2017-12-01T11:16:20.901Z,15.30
2017-12-01T11:18:49.725Z,15.20
2017-12-01T11:21:19.297Z,14.83
2017-12-01T11:23:48.881Z,13.53
2017-12-01T11:26:18.514Z,15.33
2017-12-01T11:28:48.087Z,16.13
2017-12-01T11:31:17.684Z,14.23
2017-12-01T11:33:46.515Z,14.23
2017-12-01T11:36:15.352Z,15.10
2017-12-01T11:38:44.299Z,14.33
2017-12-01T11:41:13.125Z,14.17
2017-12-01T11:43:41.962Z,14.03
2017-12-01T11:46:10.906Z,15.57
2017-12-01T11:48:39.726Z,17.00
2017-12-01T11:51:08.566Z,17.27
2017-12-01T11:53:37.471Z,15.20
2017-12-01T11:56:06.310Z,14.73
2017-12-01T11:58:35.138Z,15.80
2017-12-01T12:01:03.989Z,16.30
2017-12-01T12:03:32.896Z,16.20
2017-12-01T12:06:02.029Z,16.77
2017-12-01T12:08:30.879Z,15.80
2017-12-01T12:10:59.786Z,16.50
2017-12-01T12:13:28.627Z,17.13
2017-12-01T12:15:57.475Z,16.70
2017-12-01T12:18:26.309Z,16.97
2017-12-01T12:20:55.152Z,16.07
2017-12-01T12:23:23.991Z,16.10
2017-12-01T12:25:52.927Z,18.60
2017-12-01T12:28:21.837Z,18.47
2017-12-01T12:30:50.856Z,17.65
2017-12-01T12:33:20.429Z,17.40
2017-12-01T12:35:50.006Z,17.40
2017-12-01T12:38:19.626Z,16.80
2017-12-01T12:40:49.194Z,17.20
2017-12-01T12:43:18.026Z,17.27
2017-12-01T12:45:46.954Z,17.93
2017-12-01T12:48:15.796Z,20.13
2017-12-01T12:50:44.630Z,20.20
2017-12-01T12:53:13.478Z,21.40
2017-12-01T12:55:42.322Z,17.57
2017-12-01T12:58:11.164Z,17.53
2017-12-01T13:00:40.129Z,16.33
2017-12-01T13:03:09.066Z,16.20
2017-12-01T13:05:37.901Z,16.87
2017-12-01T13:08:06.743Z,17.57
2017-12-01T13:10:35.567Z,15.33
2017-12-01T13:13:04.401Z,17.17
2017-12-01T13:15:33.249Z,15.40
2017-12-01T13:18:02.191Z,16.27
2017-12-01T13:20:31.023Z,15.97
2017-12-01T13:22:59.889Z,17.00
2017-12-01T13:25:28.726Z,15.50
2017-12-01T13:27:57.659Z,16.87
2017-12-01T13:30:26.586Z,15.27
2017-12-01T13:32:55.410Z,16.83
2017-12-01T13:35:24.250Z,16.20
2017-12-01T13:37:53.090Z,15.37
2017-12-01T13:40:22.442Z,16.00
2017-12-01T13:42:52.014Z,16.13
2017-12-01T13:45:21.822Z,15.73
2017-12-01T13:47:51.396Z,16.03
2017-12-01T13:50:20.989Z,16.53
2017-12-01T13:52:49.842Z,15.63
2017-12-01T13:55:18.782Z,14.60
2017-12-01T13:57:47.627Z,15.03
2017-12-01T14:00:16.457Z,15.80
2017-12-01T14:02:45.287Z,15.07
2017-12-01T14:05:14.135Z,14.80
2017-12-01T14:07:43.025Z,13.67
2017-12-01T14:10:11.827Z,13.93
2017-12-01T14:12:40.772Z,15.57
2017-12-01T14:15:09.807Z,15.50
2017-12-01T14:17:38.635Z,14.48
2017-12-01T14:20:07.483Z,13.33
2017-12-01T14:22:36.367Z,14.60
2017-12-01T14:25:05.360Z,13.17
2017-12-01T14:27:34.431Z,13.47
2017-12-01T14:30:03.603Z,13.77
2017-12-01T14:32:32.487Z,15.20
2017-12-01T14:35:01.389Z,13.63
2017-12-01T14:37:30.256Z,16.00
2017-12-01T14:39:59.095Z,14.73
2017-12-01T14:42:28.074Z,15.30
2017-12-01T14:44:56.922Z,16.10
2017-12-01T14:47:25.758Z,15.13
2017-12-01T14:49:54.602Z,14.47
2017-12-01T14:52:24.178Z,14.93
2017-12-01T14:54:53.780Z,14.27
2017-12-01T14:57:23.382Z,12.10
2017-12-01T14:59:52.956Z,15.13
2017-12-01T15:02:22.595Z,13.33
2017-12-01T15:04:51.425Z,13.97
2017-12-01T15:07:20.262Z,13.63
2017-12-01T15:09:49.265Z,13.87
2017-12-01T15:12:18.105Z,14.80
2017-12-01T15:14:46.950Z,14.80
2017-12-01T15:17:15.803Z,14.30
2017-12-01T15:19:44.631Z,13.20
2017-12-01T15:22:13.507Z,13.07
2017-12-01T15:24:42.347Z,14.30
2017-12-01T15:27:11.185Z,13.90
2017-12-01T15:29:40.047Z,14.67
2017-12-01T15:32:09.005Z,13.40
2017-12-01T15:34:38.007Z,14.60
2017-12-01T15:37:06.833Z,15.03
2017-12-01T15:39:35.714Z,15.17
2017-12-01T15:42:04.575Z,15.40
2017-12-01T15:44:33.404Z,15.83
2017-12-01T15:47:02.242Z,14.57
2017-12-01T15:49:31.139Z,14.70
2017-12-01T15:52:00.026Z,20.30
2017-12-01T15:54:28.910Z,18.70
2017-12-01T15:56:57.790Z,13.77
2017-12-01T15:59:26.656Z,14.00
2017-12-01T16:01:56.090Z,13.55
2017-12-01T16:04:25.662Z,13.83
2017-12-01T16:06:55.245Z,14.30
2017-12-01T16:09:24.833Z,13.73
2017-12-01T16:11:54.900Z,15.23
2017-12-01T16:14:24.562Z,14.20
2017-12-01T16:16:53.465Z,14.57
2017-12-01T16:19:22.339Z,14.40
2017-12-01T16:21:51.309Z,15.30
2017-12-01T16:24:20.162Z,16.20
2017-12-01T16:26:48.989Z,19.20
2017-12-01T16:29:17.881Z,16.53
2017-12-01T16:31:46.743Z,16.40
2017-12-01T16:34:15.593Z,18.27
2017-12-01T16:36:44.486Z,23.00
2017-12-01T16:39:13.287Z,22.60
2017-12-01T16:41:42.112Z,19.10
2017-12-01T16:44:10.955Z,18.30
2017-12-01T16:46:39.900Z,17.50
2017-12-01T16:49:08.734Z,19.23
2017-12-01T16:51:37.562Z,19.77
2017-12-01T16:54:06.431Z,18.63
2017-12-01T16:56:35.268Z,17.37
2017-12-01T16:59:04.108Z,18.30
2017-12-01T17:01:32.964Z,17.17
2017-12-01T17:04:01.796Z,17.33
2017-12-01T17:06:30.796Z,17.60
2017-12-01T17:08:59.714Z,17.33
2017-12-01T17:11:28.537Z,17.67
2017-12-01T17:14:00.725Z,17.17
2017-12-01T17:16:29.624Z,17.80
2017-12-01T17:18:59.225Z,17.20
2017-12-01T17:21:28.096Z,17.90
2017-12-01T17:23:57.415Z,19.00
2017-12-01T17:26:27.003Z,17.50
2017-12-01T17:28:56.587Z,17.90
2017-12-01T17:31:26.160Z,17.70
2017-12-01T17:33:55.755Z,18.43
2017-12-01T17:36:24.591Z,17.37
2017-12-01T17:38:53.422Z,17.43
2017-12-01T17:41:22.349Z,17.97
2017-12-01T17:43:51.191Z,17.73
2017-12-01T17:46:20.024Z,18.57
2017-12-01T17:48:48.874Z,16.83
2017-12-01T17:51:17.814Z,17.17
2017-12-01T17:53:46.658Z,15.60
2017-12-01T17:56:15.748Z,16.60
2017-12-01T17:58:44.618Z,17.60
2017-12-01T18:01:13.476Z,16.40
2017-12-01T18:03:42.378Z,16.07
2017-12-01T18:06:11.214Z,18.47
2017-12-01T18:08:40.157Z,18.30
2017-12-01T18:11:09.051Z,16.00
2017-12-01T18:13:37.899Z,15.40
2017-12-01T18:16:06.733Z,16.13
2017-12-01T18:18:35.569Z,15.50
2017-12-01T18:21:04.419Z,15.77
2017-12-01T18:23:33.244Z,16.20
2017-12-01T18:26:02.089Z,17.97
2017-12-01T18:28:30.950Z,16.83
2017-12-01T18:30:59.813Z,17.03
2017-12-01T18:33:28.647Z,17.80
2017-12-01T18:35:58.231Z,22.10
2017-12-01T18:38:27.854Z,18.17
2017-12-01T18:40:57.549Z,19.03
2017-12-01T18:43:27.210Z,29.07
2017-12-01T18:45:56.795Z,19.30
2017-12-01T18:48:25.642Z,20.13
2017-12-01T18:50:54.518Z,19.23
2017-12-01T18:53:23.362Z,21.33
2017-12-01T18:55:52.197Z,21.37
2017-12-01T18:58:21.087Z,22.37
2017-12-01T19:00:49.909Z,20.10
2017-12-01T19:03:18.756Z,23.40
2017-12-01T19:05:47.614Z,20.70
2017-12-01T19:08:16.466Z,24.50
2017-12-01T19:10:45.298Z,35.07
2017-12-01T19:13:14.135Z,24.63
2017-12-01T19:15:42.985Z,20.23
2017-12-01T19:18:11.879Z,20.17
2017-12-01T19:20:40.727Z,20.10
2017-12-01T19:23:09.577Z,20.27
2017-12-01T19:25:39.279Z,21.33
2017-12-01T19:28:08.207Z,21.97
2017-12-01T19:30:37.051Z,22.73
2017-12-01T19:33:05.897Z,22.93
2017-12-01T19:35:34.731Z,20.90
2017-12-01T19:38:03.606Z,21.10
2017-12-01T19:40:32.463Z,22.33
2017-12-01T19:43:01.294Z,22.57
2017-12-01T19:45:30.142Z,22.50
2017-12-01T19:47:59.711Z,21.77
2017-12-01T19:50:29.292Z,22.87
2017-12-01T19:52:58.902Z,23.73
2017-12-01T19:55:28.566Z,26.77
2017-12-01T19:57:58.175Z,26.40
2017-12-01T20:00:27.024Z,31.90
2017-12-01T20:02:55.921Z,24.60
2017-12-01T20:05:24.757Z,23.20
2017-12-01T20:07:53.701Z,25.80
2017-12-01T20:10:22.697Z,25.53
2017-12-01T20:12:51.549Z,27.30
2017-12-01T20:15:20.394Z,30.03
2017-12-01T20:17:49.225Z,32.43
2017-12-01T20:20:18.075Z,31.03
2017-12-01T20:22:46.913Z,31.37
2017-12-01T20:25:15.839Z,36.33
2017-12-01T20:27:44.665Z,30.43
2017-12-01T20:30:13.515Z,41.33
2017-12-01T20:32:42.433Z,39.47
2017-12-01T20:35:11.281Z,41.13
2017-12-01T20:37:40.163Z,44.57
2017-12-01T20:40:08.990Z,45.17
2017-12-01T20:42:37.866Z,42.67
2017-12-01T20:45:06.732Z,39.37
2017-12-01T20:47:35.642Z,39.40
2017-12-01T20:50:04.480Z,35.57
2017-12-01T20:52:33.322Z,33.80
2017-12-01T20:55:02.206Z,34.23
2017-12-01T20:57:31.214Z,32.47
2017-12-01T21:00:00.833Z,34.40
2017-12-01T21:02:30.416Z,40.40
2017-12-01T21:05:00.010Z,37.43
2017-12-01T21:07:29.601Z,38.83
2017-12-01T21:09:58.441Z,39.77
2017-12-01T21:12:27.271Z,38.10
2017-12-01T21:14:56.146Z,41.10
2017-12-01T21:17:24.980Z,37.53
2017-12-01T21:19:53.805Z,37.20
2017-12-01T21:22:22.659Z,36.23
2017-12-01T21:24:51.493Z,36.17
2017-12-01T21:27:20.325Z,36.10
2017-12-01T21:29:49.179Z,41.50
2017-12-01T21:32:18.009Z,36.35
2017-12-01T21:34:46.847Z,33.50
2017-12-01T21:37:15.701Z,35.92
2017-12-01T21:39:44.605Z,41.47
2017-12-01T21:42:13.447Z,43.30
2017-12-01T21:44:42.287Z,40.27
2017-12-01T21:47:11.113Z,35.07
2017-12-01T21:49:39.951Z,37.27
2017-12-01T21:52:08.815Z,33.73
2017-12-01T21:54:37.728Z,30.63
2017-12-01T21:57:06.564Z,28.83
2017-12-01T21:59:35.402Z,28.60
2017-12-01T22:02:04.226Z,28.30
2017-12-01T22:04:33.562Z,29.55
2017-12-01T22:07:03.154Z,28.90
2017-12-01T22:09:32.738Z,28.73
2017-12-01T22:12:02.330Z,26.80
2017-12-01T22:14:31.931Z,28.10
2017-12-01T22:17:00.766Z,24.07
2017-12-01T22:19:29.617Z,25.90
2017-12-01T22:21:58.457Z,25.23
2017-12-01T22:24:27.310Z,26.60
2017-12-01T22:26:56.138Z,26.20
2017-12-01T22:29:25.077Z,27.20
2017-12-01T22:31:53.911Z,26.20
2017-12-01T22:34:22.741Z,23.43
2017-12-01T22:36:51.629Z,23.97
2017-12-01T22:39:20.461Z,23.97
2017-12-01T22:41:49.295Z,22.30
2017-12-01T22:44:18.139Z,25.77
2017-12-01T22:46:46.985Z,24.77
2017-12-01T22:49:15.927Z,24.43
2017-12-01T22:51:44.781Z,25.97
2017-12-01T22:54:13.729Z,23.20
2017-12-01T22:56:42.546Z,24.43
2017-12-01T22:59:11.790Z,23.93
2017-12-01T23:01:40.829Z,27.13
2017-12-01T23:04:09.938Z,26.50
2017-12-01T23:06:39.282Z,33.93
2017-12-01T23:09:08.138Z,34.37
2017-12-01T23:11:37.078Z,32.43
2017-12-01T23:14:05.922Z,37.53
2017-12-01T23:16:35.298Z,38.53
2017-12-01T23:19:04.882Z,34.27
2017-12-01T23:21:34.586Z,33.37
2017-12-01T23:24:04.277Z,29.43
2017-12-01T23:26:33.863Z,28.40
2017-12-01T23:29:03.723Z,29.57
2017-12-01T23:31:32.549Z,25.77
2017-12-01T23:34:02.201Z,23.90
2017-12-01T23:36:31.045Z,23.50
2017-12-01T23:38:59.883Z,23.67
2017-12-01T23:41:28.761Z,25.20
2017-12-01T23:43:57.595Z,25.80
2017-12-01T23:46:26.559Z,24.50
2017-12-01T23:48:55.399Z,26.20
2017-12-01T23:51:24.351Z,26.07
2017-12-01T23:53:53.186Z,26.03
2017-12-01T23:56:22.029Z,25.67
2017-12-01T23:58:50.864Z,25.27
